createdAt,value
2024-03-29T00:00:03.096Z,3.00
2024-03-29T00:00:52.302Z,3.00
2024-03-29T00:01:43.782Z,3.00
2024-03-29T00:02:33.467Z,3.00
2024-03-29T00:03:23.044Z,3.00
2024-03-29T00:04:12.778Z,3.00
2024-03-29T00:05:03.557Z,3.00
2024-03-29T00:05:53.311Z,3.00
2024-03-29T00:06:42.808Z,3.00
2024-03-29T00:07:32.077Z,3.00
2024-03-29T00:08:21.324Z,3.00
2024-03-29T00:09:10.598Z,3.00
2024-03-29T00:10:00.300Z,3.00
2024-03-29T00:10:49.998Z,3.00
2024-03-29T00:11:39.343Z,3.00
2024-03-29T00:12:28.483Z,3.00
2024-03-29T00:13:17.850Z,3.00
2024-03-29T00:14:07.425Z,3.00
2024-03-29T00:14:56.957Z,3.00
2024-03-29T00:15:46.703Z,3.00
2024-03-29T00:16:36.048Z,3.00
2024-03-29T00:17:25.262Z,3.00
2024-03-29T00:18:14.867Z,3.00
2024-03-29T00:19:04.945Z,3.00
2024-03-29T00:19:54.370Z,3.00
2024-03-29T00:20:44.076Z,3.00
2024-03-29T00:21:33.733Z,3.00
2024-03-29T00:22:23.055Z,3.00
2024-03-29T00:23:12.377Z,3.00
2024-03-29T00:24:01.724Z,3.00
2024-03-29T00:24:51.229Z,3.00
2024-03-29T00:25:41.311Z,3.00
2024-03-29T00:26:30.506Z,3.00
2024-03-29T00:27:20.603Z,3.00
2024-03-29T00:28:09.725Z,3.00
2024-03-29T00:28:59.721Z,3.00
2024-03-29T00:29:52.824Z,3.00
2024-03-29T00:30:42.421Z,3.00
2024-03-29T00:31:31.666Z,3.00
2024-03-29T00:32:24.347Z,3.00
2024-03-29T00:33:14.045Z,3.00
2024-03-29T00:34:03.835Z,3.00
2024-03-29T00:34:54.458Z,3.00
2024-03-29T00:35:43.698Z,3.00
2024-03-29T00:36:33.346Z,3.00
2024-03-29T00:37:23.054Z,3.00
2024-03-29T00:38:13.096Z,3.00
2024-03-29T00:39:02.797Z,3.00
2024-03-29T00:39:52.207Z,3.00
2024-03-29T00:40:41.522Z,3.00
2024-03-29T00:41:30.949Z,3.00
2024-03-29T00:42:21.043Z,2.67
2024-03-29T00:43:10.494Z,2.00
2024-03-29T00:43:59.830Z,2.00
2024-03-29T00:44:49.450Z,2.00
2024-03-29T00:45:38.931Z,2.00
2024-03-29T00:46:28.894Z,2.00
2024-03-29T00:47:18.281Z,2.00
2024-03-29T00:48:08.119Z,2.00
2024-03-29T00:48:57.706Z,2.00
2024-03-29T00:49:47.265Z,2.00
2024-03-29T00:50:37.537Z,2.00
2024-03-29T00:51:29.886Z,2.00
2024-03-29T00:52:19.505Z,2.00
2024-03-29T00:53:09.145Z,2.00
2024-03-29T00:53:58.656Z,2.00
2024-03-29T00:54:48.050Z,2.00
2024-03-29T00:55:37.710Z,2.00
2024-03-29T00:56:27.447Z,2.00
2024-03-29T00:57:17.251Z,2.00
2024-03-29T00:58:07.285Z,2.00
2024-03-29T00:58:56.918Z,2.00
2024-03-29T00:59:46.797Z,2.00
2024-03-29T01:00:36.152Z,2.00
2024-03-29T01:01:25.879Z,2.00
2024-03-29T01:02:15.192Z,2.00
2024-03-29T01:03:04.359Z,2.00
2024-03-29T01:03:53.855Z,2.00
2024-03-29T01:04:43.464Z,2.00
2024-03-29T01:05:33.251Z,2.00
2024-03-29T01:06:22.693Z,2.00
2024-03-29T01:07:12.261Z,2.00
2024-03-29T01:08:01.684Z,2.00
2024-03-29T01:08:51.189Z,2.00
2024-03-29T01:09:41.099Z,2.00
2024-03-29T01:11:19.934Z,2.00
2024-03-29T01:12:09.901Z,2.33
2024-03-29T01:12:59.039Z,3.00
2024-03-29T01:13:49.044Z,3.00
2024-03-29T01:14:38.477Z,3.00
2024-03-29T01:15:28.886Z,3.00
2024-03-29T01:16:18.288Z,3.00
2024-03-29T01:17:07.580Z,3.00
2024-03-29T01:17:56.906Z,3.00
2024-03-29T01:18:46.948Z,3.00
2024-03-29T01:19:36.614Z,3.00
2024-03-29T01:20:25.927Z,3.00
2024-03-29T01:21:18.021Z,3.00
2024-03-29T01:22:08.276Z,3.00
2024-03-29T01:22:57.991Z,3.00
2024-03-29T01:23:47.294Z,4.00
2024-03-29T01:24:36.609Z,4.00
2024-03-29T01:25:27.457Z,4.00
2024-03-29T01:26:17.435Z,4.00
2024-03-29T01:27:07.160Z,4.00
2024-03-29T01:27:57.008Z,4.00
2024-03-29T01:28:46.871Z,4.00
2024-03-29T01:29:36.361Z,4.00
2024-03-29T01:30:27.009Z,4.00
2024-03-29T01:31:16.600Z,4.00
2024-03-29T01:32:06.737Z,4.00
2024-03-29T01:32:56.046Z,5.00
2024-03-29T01:33:45.351Z,5.00
2024-03-29T01:34:35.002Z,5.00
2024-03-29T01:35:24.268Z,5.00
2024-03-29T01:36:13.687Z,5.00
2024-03-29T01:37:03.307Z,5.00
2024-03-29T01:37:52.892Z,5.00
2024-03-29T01:38:45.529Z,5.00
2024-03-29T01:39:35.203Z,5.00
2024-03-29T01:40:24.804Z,5.00
2024-03-29T01:41:14.045Z,6.00
2024-03-29T01:42:03.699Z,6.00
2024-03-29T01:42:53.883Z,6.00
2024-03-29T01:43:43.623Z,6.00
2024-03-29T01:44:33.286Z,6.00
2024-03-29T01:45:23.002Z,6.00
2024-03-29T01:46:12.652Z,7.00
2024-03-29T01:47:02.412Z,7.00
2024-03-29T01:47:51.883Z,7.00
2024-03-29T01:48:41.654Z,7.00
2024-03-29T01:49:31.454Z,8.00
2024-03-29T01:50:21.004Z,8.00
2024-03-29T01:51:14.053Z,8.00
2024-03-29T01:52:04.265Z,8.00
2024-03-29T01:52:53.923Z,9.00
2024-03-29T01:53:44.884Z,9.00
2024-03-29T01:54:34.603Z,9.00
2024-03-29T01:55:24.322Z,9.33
2024-03-29T01:56:16.099Z,10.00
2024-03-29T01:57:06.029Z,10.00
2024-03-29T01:57:56.773Z,10.00
2024-03-29T01:58:46.439Z,11.00
2024-03-29T01:59:37.611Z,11.00
2024-03-29T02:00:27.718Z,11.00
2024-03-29T02:01:17.344Z,11.00
2024-03-29T02:02:06.977Z,12.00
2024-03-29T02:02:57.155Z,12.00
2024-03-29T02:03:47.572Z,12.00
2024-03-29T02:04:37.424Z,12.33
2024-03-29T02:05:27.903Z,13.00
2024-03-29T02:06:17.699Z,13.00
2024-03-29T02:07:07.804Z,13.67
2024-03-29T02:07:57.562Z,14.00
2024-03-29T02:08:50.228Z,14.00
2024-03-29T02:09:39.986Z,15.00
2024-03-29T02:10:29.859Z,15.00
2024-03-29T02:11:20.093Z,15.33
2024-03-29T02:12:09.569Z,16.00
2024-03-29T02:12:59.031Z,16.00
2024-03-29T02:13:49.923Z,17.00
2024-03-29T02:14:40.796Z,17.00
2024-03-29T02:15:31.297Z,17.00
2024-03-29T02:16:20.634Z,18.00
2024-03-29T02:17:10.057Z,18.00
2024-03-29T02:17:59.572Z,18.33
2024-03-29T02:18:48.767Z,19.00
2024-03-29T02:19:38.132Z,19.33
2024-03-29T02:20:37.878Z,20.00
2024-03-29T02:21:30.468Z,20.33
2024-03-29T02:22:22.322Z,21.00
2024-03-29T02:23:18.555Z,21.67
2024-03-29T02:24:08.280Z,22.00
2024-03-29T02:24:58.031Z,23.00
2024-03-29T02:25:47.474Z,23.00
2024-03-29T02:26:41.445Z,24.00
2024-03-29T02:27:31.021Z,24.00
2024-03-29T02:28:22.418Z,25.00
2024-03-29T02:29:12.586Z,25.67
2024-03-29T02:30:03.167Z,26.00
2024-03-29T02:30:52.668Z,27.00
2024-03-29T02:31:42.176Z,27.33
2024-03-29T02:32:31.609Z,28.00
2024-03-29T02:33:21.714Z,28.33
2024-03-29T02:34:11.254Z,29.00
2024-03-29T02:35:00.581Z,29.00
2024-03-29T02:35:49.786Z,30.00
2024-03-29T02:36:39.471Z,30.00
2024-03-29T02:37:29.679Z,30.00
2024-03-29T02:38:20.145Z,30.00
2024-03-29T02:39:10.033Z,30.00
2024-03-29T02:39:59.425Z,31.00
2024-03-29T02:40:49.219Z,31.00
2024-03-29T02:41:38.692Z,31.00
2024-03-29T02:42:27.990Z,31.00
2024-03-29T02:43:17.605Z,32.00
2024-03-29T02:44:06.820Z,32.00
2024-03-29T02:44:56.371Z,32.00
2024-03-29T02:45:46.161Z,32.00
2024-03-29T02:46:35.798Z,33.00
2024-03-29T02:47:25.212Z,33.00
2024-03-29T02:48:14.536Z,33.00
2024-03-29T02:49:03.910Z,33.00
2024-03-29T02:49:53.182Z,34.00
2024-03-29T02:50:42.907Z,34.00
2024-03-29T02:51:32.384Z,34.67
2024-03-29T02:52:22.030Z,35.00
2024-03-29T02:53:11.310Z,35.67
2024-03-29T02:54:00.943Z,36.00
2024-03-29T02:54:50.571Z,37.00
2024-03-29T02:55:41.703Z,37.33
2024-03-29T02:56:31.296Z,38.00
2024-03-29T02:57:20.962Z,39.00
2024-03-29T02:58:10.236Z,39.33
2024-03-29T02:58:59.735Z,40.00
2024-03-29T02:59:49.537Z,40.33
2024-03-29T03:01:29.064Z,41.33
2024-03-29T03:02:18.681Z,42.00
2024-03-29T03:03:08.410Z,42.00
2024-03-29T03:03:58.035Z,42.00
2024-03-29T03:04:47.752Z,43.00
2024-03-29T03:05:37.265Z,43.00
2024-03-29T03:06:26.969Z,43.00
2024-03-29T03:07:34.894Z,43.67
2024-03-29T03:08:43.012Z,44.00
2024-03-29T03:09:51.080Z,44.00
2024-03-29T03:11:01.820Z,45.00
2024-03-29T03:11:51.257Z,45.67
2024-03-29T03:12:40.930Z,46.00
2024-03-29T03:13:30.924Z,46.67
2024-03-29T03:14:20.257Z,47.00
2024-03-29T03:15:09.577Z,48.00
2024-03-29T03:15:59.426Z,48.33
2024-03-29T03:16:48.652Z,49.00
2024-03-29T03:17:37.976Z,50.00
2024-03-29T03:18:27.356Z,50.00
2024-03-29T03:19:17.040Z,51.00
2024-03-29T03:20:07.083Z,51.00
2024-03-29T03:20:59.967Z,52.00
2024-03-29T03:21:50.896Z,52.00
2024-03-29T03:22:40.244Z,53.00
2024-03-29T03:23:29.533Z,53.00
2024-03-29T03:24:19.361Z,54.00
2024-03-29T03:25:08.884Z,54.67
2024-03-29T03:26:00.323Z,55.33
2024-03-29T03:26:49.544Z,56.33
2024-03-29T03:27:38.854Z,57.00
2024-03-29T03:28:28.423Z,58.00
2024-03-29T03:29:18.517Z,59.00
2024-03-29T03:30:08.424Z,59.67
2024-03-29T03:30:58.080Z,60.00
2024-03-29T03:31:47.611Z,61.00
2024-03-29T03:32:37.344Z,61.00
2024-03-29T03:33:27.483Z,62.00
2024-03-29T03:34:16.712Z,62.00
2024-03-29T03:35:06.209Z,63.00
2024-03-29T03:35:55.596Z,63.67
2024-03-29T03:36:45.206Z,64.00
2024-03-29T03:37:34.484Z,65.00
2024-03-29T03:38:24.266Z,65.33
2024-03-29T03:39:14.360Z,66.33
2024-03-29T03:40:07.226Z,67.67
2024-03-29T03:40:56.647Z,69.00
2024-03-29T03:41:46.997Z,70.00
2024-03-29T03:42:36.222Z,71.33
2024-03-29T03:43:25.886Z,72.33
2024-03-29T03:44:15.216Z,73.67
2024-03-29T03:45:05.051Z,74.33
2024-03-29T03:45:59.957Z,75.00
2024-03-29T03:46:49.421Z,76.00
2024-03-29T03:47:39.230Z,77.00
2024-03-29T03:48:31.900Z,77.00
2024-03-29T03:49:21.143Z,78.00
2024-03-29T03:50:10.955Z,78.00
2024-03-29T03:51:00.358Z,78.67
2024-03-29T03:51:49.893Z,79.00
2024-03-29T03:52:39.501Z,79.00
2024-03-29T03:53:28.843Z,79.00
2024-03-29T03:54:18.497Z,79.00
2024-03-29T03:55:07.879Z,79.67
2024-03-29T03:55:57.330Z,79.00
2024-03-29T03:56:46.983Z,79.00
2024-03-29T03:57:36.306Z,79.00
2024-03-29T03:58:26.098Z,78.33
2024-03-29T03:59:15.749Z,78.00
2024-03-29T04:00:06.356Z,77.00
2024-03-29T04:00:55.602Z,77.00
2024-03-29T04:01:45.197Z,77.00
2024-03-29T04:02:35.002Z,76.00
2024-03-29T04:03:24.336Z,76.00
2024-03-29T04:04:13.736Z,76.00
2024-03-29T04:05:03.067Z,76.00
2024-03-29T04:05:52.628Z,75.00
2024-03-29T04:06:41.898Z,75.00
2024-03-29T04:07:31.590Z,75.00
2024-03-29T04:08:20.892Z,75.00
2024-03-29T04:09:11.048Z,75.00
2024-03-29T04:10:00.653Z,75.00
2024-03-29T04:10:50.208Z,75.00
2024-03-29T04:11:39.680Z,75.00
2024-03-29T04:12:29.280Z,75.00
2024-03-29T04:13:18.925Z,75.00
2024-03-29T04:14:08.616Z,75.00
2024-03-29T04:14:58.109Z,75.00
2024-03-29T04:15:47.415Z,76.00
2024-03-29T04:16:36.754Z,77.00
2024-03-29T04:17:26.300Z,78.00
2024-03-29T04:18:15.882Z,79.00
2024-03-29T04:19:05.100Z,80.00
2024-03-29T04:19:54.361Z,81.00
2024-03-29T04:20:43.657Z,82.00
2024-03-29T04:21:33.104Z,83.33
2024-03-29T04:22:23.151Z,84.67
2024-03-29T04:23:12.644Z,86.00
2024-03-29T04:24:01.964Z,87.67
2024-03-29T04:24:51.611Z,89.00
2024-03-29T04:25:40.882Z,90.00
2024-03-29T04:26:30.827Z,91.00
2024-03-29T04:27:20.244Z,91.00
2024-03-29T04:28:09.695Z,92.00
2024-03-29T04:28:59.510Z,92.00
2024-03-29T04:29:55.367Z,92.00
2024-03-29T04:30:58.684Z,92.00
2024-03-29T04:31:48.449Z,93.00
2024-03-29T04:32:37.851Z,94.00
2024-03-29T04:33:27.625Z,95.00
2024-03-29T04:34:17.213Z,97.00
2024-03-29T04:35:07.165Z,98.00
2024-03-29T04:36:03.146Z,99.33
2024-03-29T04:36:52.330Z,100.33
2024-03-29T04:37:41.730Z,101.67
2024-03-29T04:38:32.176Z,103.00
2024-03-29T04:39:22.506Z,104.67
2024-03-29T04:40:11.914Z,105.67
2024-03-29T04:41:01.314Z,107.00
2024-03-29T04:41:51.069Z,107.67
2024-03-29T04:42:40.825Z,108.00
2024-03-29T04:43:30.232Z,108.00
2024-03-29T04:44:27.053Z,108.00
2024-03-29T04:45:16.520Z,107.00
2024-03-29T04:46:10.949Z,108.00
2024-03-29T04:47:01.493Z,108.00
2024-03-29T04:47:50.841Z,108.00
2024-03-29T04:48:41.678Z,109.00
2024-03-29T04:49:34.782Z,109.00
2024-03-29T04:50:24.459Z,109.00
2024-03-29T04:51:13.868Z,109.00
2024-03-29T04:52:06.179Z,109.00
2024-03-29T04:52:55.499Z,110.00
2024-03-29T04:53:44.744Z,110.00
2024-03-29T04:54:34.449Z,110.33
2024-03-29T04:55:23.955Z,111.00
2024-03-29T04:56:13.621Z,111.00
2024-03-29T04:57:06.121Z,111.00
2024-03-29T04:57:55.332Z,111.00
2024-03-29T04:58:46.171Z,111.00
2024-03-29T04:59:35.838Z,110.67
2024-03-29T05:00:25.502Z,110.00
2024-03-29T05:01:14.734Z,110.00
2024-03-29T05:02:04.445Z,109.67
2024-03-29T05:02:53.922Z,109.00
2024-03-29T05:03:43.096Z,109.00
2024-03-29T05:04:32.893Z,109.00
2024-03-29T05:05:22.408Z,109.00
2024-03-29T05:06:11.637Z,109.00
2024-03-29T05:07:01.313Z,109.00
2024-03-29T05:07:50.812Z,109.00
2024-03-29T05:08:40.340Z,109.00
2024-03-29T05:09:31.049Z,109.00
2024-03-29T05:10:22.774Z,109.00
2024-03-29T05:11:14.821Z,109.00
2024-03-29T05:12:04.699Z,110.00
2024-03-29T05:12:54.515Z,110.00
2024-03-29T05:13:43.933Z,111.00
2024-03-29T05:14:33.161Z,112.00
2024-03-29T05:15:22.740Z,113.00
2024-03-29T05:16:12.307Z,113.67
2024-03-29T05:17:02.397Z,114.00
2024-03-29T05:17:51.688Z,115.00
2024-03-29T05:18:41.481Z,115.00
2024-03-29T05:19:30.837Z,115.00
2024-03-29T05:20:20.513Z,115.00
2024-03-29T05:21:10.163Z,115.00
2024-03-29T05:22:00.820Z,115.00
2024-03-29T05:22:50.316Z,115.00
2024-03-29T05:23:39.820Z,115.00
2024-03-29T05:24:29.782Z,115.00
2024-03-29T05:25:19.241Z,115.00
2024-03-29T05:26:08.977Z,115.00
2024-03-29T05:26:58.336Z,115.00
2024-03-29T05:27:48.273Z,115.00
2024-03-29T05:28:37.685Z,115.33
2024-03-29T05:29:27.270Z,116.00
2024-03-29T05:30:16.683Z,116.00
2024-03-29T05:31:16.364Z,116.00
2024-03-29T05:32:06.977Z,116.00
2024-03-29T05:32:56.368Z,116.00
2024-03-29T05:33:45.854Z,116.00
2024-03-29T05:34:35.514Z,116.00
2024-03-29T05:35:24.860Z,115.33
2024-03-29T05:36:14.670Z,115.00
2024-03-29T05:37:05.068Z,114.00
2024-03-29T05:37:54.867Z,113.00
2024-03-29T05:38:44.965Z,111.33
2024-03-29T05:39:34.222Z,109.33
2024-03-29T05:40:25.420Z,107.33
2024-03-29T05:41:15.148Z,106.00
2024-03-29T05:42:04.618Z,105.00
2024-03-29T05:42:55.036Z,103.67
2024-03-29T05:43:44.398Z,102.33
2024-03-29T05:44:36.332Z,100.67
2024-03-29T05:45:29.905Z,99.67
2024-03-29T05:46:19.366Z,98.00
2024-03-29T05:47:08.594Z,97.00
2024-03-29T05:47:59.053Z,96.00
2024-03-29T05:48:48.398Z,95.00
2024-03-29T05:49:38.122Z,94.00
2024-03-29T05:50:28.058Z,94.00
2024-03-29T05:51:17.779Z,93.00
2024-03-29T05:52:07.126Z,92.33
2024-03-29T05:52:57.009Z,91.67
2024-03-29T05:53:46.644Z,91.00
2024-03-29T05:54:36.028Z,90.00
2024-03-29T05:55:26.017Z,90.00
2024-03-29T05:56:15.267Z,90.00
2024-03-29T05:57:06.565Z,89.00
2024-03-29T05:57:55.913Z,88.00
2024-03-29T05:58:45.660Z,87.33
2024-03-29T05:59:35.478Z,87.00
2024-03-29T06:00:25.291Z,87.00
2024-03-29T06:01:14.965Z,86.00
2024-03-29T06:02:04.756Z,86.00
2024-03-29T06:02:54.692Z,86.00
2024-03-29T06:03:44.155Z,86.00
2024-03-29T06:04:35.115Z,86.00
2024-03-29T06:05:25.187Z,86.00
2024-03-29T06:06:17.979Z,86.00
2024-03-29T06:07:08.312Z,86.00
2024-03-29T06:07:57.729Z,85.00
2024-03-29T06:08:47.109Z,84.00
2024-03-29T06:09:36.620Z,82.67
2024-03-29T06:10:25.830Z,81.67
2024-03-29T06:11:15.295Z,81.00
2024-03-29T06:12:05.462Z,81.00
2024-03-29T06:12:54.654Z,81.00
2024-03-29T06:13:53.240Z,80.67
2024-03-29T06:15:01.096Z,80.00
2024-03-29T06:16:09.344Z,80.00
2024-03-29T06:17:17.857Z,79.00
2024-03-29T06:18:07.921Z,78.00
2024-03-29T06:18:57.425Z,77.00
2024-03-29T06:19:48.126Z,77.00
2024-03-29T06:20:37.708Z,76.00
2024-03-29T06:21:27.821Z,76.00
2024-03-29T06:22:18.027Z,76.00
2024-03-29T06:23:09.212Z,76.00
2024-03-29T06:23:59.073Z,76.00
2024-03-29T06:24:48.903Z,76.00
2024-03-29T06:25:39.172Z,76.00
2024-03-29T06:26:28.736Z,76.00
2024-03-29T06:27:20.580Z,77.00
2024-03-29T06:28:10.263Z,77.00
2024-03-29T06:29:00.780Z,77.00
2024-03-29T06:29:50.285Z,76.33
2024-03-29T06:30:41.257Z,75.33
2024-03-29T06:31:30.802Z,74.00
2024-03-29T06:32:20.895Z,72.33
2024-03-29T06:33:10.341Z,71.00
2024-03-29T06:34:00.358Z,70.00
2024-03-29T06:34:49.863Z,68.67
2024-03-29T06:35:39.408Z,67.67
2024-03-29T06:36:31.198Z,65.67
2024-03-29T06:37:25.639Z,63.67
2024-03-29T06:38:15.568Z,63.00
2024-03-29T06:39:05.349Z,62.00
2024-03-29T06:39:55.086Z,62.00
2024-03-29T06:40:44.555Z,61.00
2024-03-29T06:41:34.026Z,61.00
2024-03-29T06:42:23.588Z,61.00
2024-03-29T06:43:13.332Z,60.00
2024-03-29T06:44:02.758Z,60.00
2024-03-29T06:44:54.606Z,60.00
2024-03-29T06:45:44.598Z,60.00
2024-03-29T06:46:34.321Z,59.33
2024-03-29T06:47:24.300Z,58.00
2024-03-29T06:48:14.050Z,56.33
2024-03-29T06:49:04.413Z,54.67
2024-03-29T06:49:54.101Z,53.67
2024-03-29T06:50:43.695Z,51.67
2024-03-29T06:51:32.907Z,49.67
2024-03-29T06:52:22.528Z,47.33
2024-03-29T06:53:11.860Z,46.00
2024-03-29T06:54:01.199Z,45.33
2024-03-29T06:54:51.317Z,44.33
2024-03-29T06:55:40.555Z,43.33
2024-03-29T06:56:30.269Z,43.00
2024-03-29T06:57:23.245Z,42.33
2024-03-29T06:58:12.563Z,41.00
2024-03-29T06:59:02.057Z,40.00
2024-03-29T06:59:51.802Z,39.00
2024-03-29T07:00:41.438Z,39.00
2024-03-29T07:01:31.195Z,38.00
2024-03-29T07:02:20.727Z,38.00
2024-03-29T07:03:09.976Z,37.00
2024-03-29T07:03:59.608Z,36.67
2024-03-29T07:04:52.193Z,36.00
2024-03-29T07:05:41.862Z,36.00
2024-03-29T07:06:31.611Z,35.00
2024-03-29T07:07:20.831Z,35.00
2024-03-29T07:08:10.143Z,35.00
2024-03-29T07:08:59.476Z,34.00
2024-03-29T07:09:49.048Z,34.00
2024-03-29T07:10:38.646Z,33.00
2024-03-29T07:11:27.970Z,32.00
2024-03-29T07:12:17.980Z,31.33
2024-03-29T07:13:08.342Z,30.67
2024-03-29T07:13:58.022Z,29.67
2024-03-29T07:14:47.947Z,29.00
2024-03-29T07:15:37.676Z,28.00
2024-03-29T07:16:27.281Z,27.00
2024-03-29T07:17:16.852Z,26.00
2024-03-29T07:18:06.626Z,26.00
2024-03-29T07:18:55.843Z,25.00
2024-03-29T07:19:45.243Z,25.00
2024-03-29T07:20:34.932Z,25.00
2024-03-29T07:21:25.041Z,25.00
2024-03-29T07:22:23.759Z,24.67
2024-03-29T07:23:21.132Z,24.00
2024-03-29T07:24:10.800Z,24.00
2024-03-29T07:25:00.389Z,24.00
2024-03-29T07:26:01.248Z,24.00
2024-03-29T07:26:50.971Z,24.00
2024-03-29T07:27:41.321Z,23.00
2024-03-29T07:28:31.771Z,23.00
2024-03-29T07:29:21.151Z,23.00
2024-03-29T07:30:11.195Z,23.00
2024-03-29T07:31:09.211Z,23.00
2024-03-29T07:31:58.500Z,22.33
2024-03-29T07:32:47.865Z,22.00
2024-03-29T07:33:37.391Z,22.00
2024-03-29T07:34:26.658Z,21.00
2024-03-29T07:35:18.540Z,21.00
2024-03-29T07:36:10.793Z,21.00
2024-03-29T07:37:00.261Z,20.00
2024-03-29T07:37:51.277Z,20.00
2024-03-29T07:38:40.610Z,19.67
2024-03-29T07:39:30.332Z,19.00
2024-03-29T07:40:19.804Z,18.67
2024-03-29T07:41:10.135Z,18.00
2024-03-29T07:41:59.369Z,18.00
2024-03-29T07:42:48.599Z,17.00
2024-03-29T07:43:50.807Z,17.00
2024-03-29T07:44:39.999Z,16.00
2024-03-29T07:45:29.791Z,16.00
2024-03-29T07:46:19.081Z,15.33
2024-03-29T07:47:08.621Z,15.00
2024-03-29T07:47:58.182Z,15.00
2024-03-29T07:48:48.464Z,14.67
2024-03-29T07:49:37.998Z,14.00
2024-03-29T07:50:27.444Z,14.00
2024-03-29T07:51:16.935Z,13.67
2024-03-29T07:52:07.978Z,13.00
2024-03-29T07:52:57.441Z,13.00
2024-03-29T07:53:46.961Z,12.00
2024-03-29T07:54:36.827Z,12.00
2024-03-29T07:55:26.494Z,12.00
2024-03-29T07:56:16.978Z,11.00
2024-03-29T07:57:08.681Z,11.00
2024-03-29T07:57:58.337Z,11.00
2024-03-29T07:58:54.124Z,11.00
2024-03-29T07:59:43.359Z,10.00
2024-03-29T08:00:33.220Z,10.00
2024-03-29T08:01:27.043Z,10.00
2024-03-29T08:02:21.172Z,10.00
2024-03-29T08:03:11.709Z,10.00
2024-03-29T08:04:00.998Z,10.00
2024-03-29T08:04:52.812Z,10.00
2024-03-29T08:05:42.212Z,9.00
2024-03-29T08:06:31.793Z,9.00
2024-03-29T08:07:21.606Z,9.00
2024-03-29T08:08:11.270Z,9.00
2024-03-29T08:09:00.619Z,9.00
2024-03-29T08:09:50.808Z,8.67
2024-03-29T08:10:40.087Z,8.00
2024-03-29T08:11:29.513Z,8.00
2024-03-29T08:12:19.732Z,8.00
2024-03-29T08:13:09.500Z,8.00
2024-03-29T08:13:58.743Z,8.00
2024-03-29T08:14:48.698Z,8.00
2024-03-29T08:15:38.078Z,8.00
2024-03-29T08:16:28.570Z,7.33
2024-03-29T08:17:18.226Z,7.00
2024-03-29T08:18:07.943Z,7.00
2024-03-29T08:18:57.818Z,7.00
2024-03-29T08:19:48.080Z,7.00
2024-03-29T08:20:37.952Z,7.00
2024-03-29T08:21:27.807Z,6.00
2024-03-29T08:22:17.247Z,6.00
2024-03-29T08:23:06.594Z,6.00
2024-03-29T08:23:56.453Z,6.00
2024-03-29T08:24:45.993Z,6.00
2024-03-29T08:25:35.546Z,6.00
2024-03-29T08:26:25.168Z,6.00
2024-03-29T08:27:15.358Z,6.00
2024-03-29T08:28:04.675Z,6.00
2024-03-29T08:28:54.252Z,6.00
2024-03-29T08:29:43.971Z,5.00
2024-03-29T08:30:36.602Z,5.00
2024-03-29T08:31:25.966Z,5.00
2024-03-29T08:32:15.403Z,5.00
2024-03-29T08:33:05.019Z,5.00
2024-03-29T08:34:02.373Z,5.00
2024-03-29T08:34:52.739Z,5.00
2024-03-29T08:35:43.564Z,5.00
2024-03-29T08:36:32.946Z,5.00
2024-03-29T08:37:22.832Z,5.00
2024-03-29T08:38:13.340Z,5.00
2024-03-29T08:39:02.682Z,5.00
2024-03-29T08:39:52.013Z,5.00
2024-03-29T08:40:43.697Z,4.33
2024-03-29T08:41:33.130Z,4.00
2024-03-29T08:42:23.319Z,4.00
2024-03-29T08:43:12.795Z,4.00
2024-03-29T08:44:02.782Z,4.00
2024-03-29T08:44:53.108Z,4.00
2024-03-29T08:45:42.857Z,4.00
2024-03-29T08:46:32.131Z,4.00
2024-03-29T08:47:22.241Z,4.00
2024-03-29T08:48:14.075Z,4.00
2024-03-29T08:49:03.795Z,4.00
2024-03-29T08:49:53.042Z,4.00
2024-03-29T08:50:42.362Z,4.00
2024-03-29T08:51:32.042Z,4.00
2024-03-29T08:52:22.273Z,4.00
2024-03-29T08:53:11.788Z,4.00
2024-03-29T08:54:04.984Z,4.00
2024-03-29T08:54:54.484Z,3.67
2024-03-29T08:55:46.706Z,3.00
2024-03-29T08:56:37.127Z,3.00
2024-03-29T08:57:26.802Z,3.00
2024-03-29T08:58:16.418Z,3.00
2024-03-29T08:59:09.089Z,3.00
2024-03-29T08:59:58.788Z,3.00
2024-03-29T09:00:58.094Z,3.00
2024-03-29T09:01:52.921Z,3.00
2024-03-29T09:02:42.301Z,3.00
2024-03-29T09:03:31.817Z,3.00
2024-03-29T09:04:21.170Z,3.00
2024-03-29T09:05:10.867Z,3.00
2024-03-29T09:06:00.194Z,3.00
2024-03-29T09:06:49.782Z,3.00
2024-03-29T09:07:41.010Z,3.00
2024-03-29T09:08:30.553Z,3.00
2024-03-29T09:09:20.279Z,2.67
2024-03-29T09:10:09.851Z,2.00
2024-03-29T09:11:01.149Z,2.00
2024-03-29T09:11:50.460Z,2.00
2024-03-29T09:12:39.796Z,2.00
2024-03-29T09:13:30.625Z,2.00
2024-03-29T09:14:20.344Z,2.00
2024-03-29T09:15:13.434Z,2.00
2024-03-29T09:16:03.143Z,2.00
2024-03-29T09:16:52.776Z,2.00
2024-03-29T09:17:46.268Z,2.00
2024-03-29T09:18:35.545Z,2.00
2024-03-29T09:19:25.319Z,2.00
2024-03-29T09:20:15.217Z,2.00
2024-03-29T09:21:04.930Z,2.00
2024-03-29T09:21:54.681Z,2.00
2024-03-29T09:22:44.767Z,2.00
2024-03-29T09:23:34.353Z,2.00
2024-03-29T09:24:25.897Z,2.00
2024-03-29T09:25:15.648Z,2.00
2024-03-29T09:26:05.548Z,2.00
2024-03-29T09:26:55.107Z,2.00
2024-03-29T09:27:48.585Z,2.00
2024-03-29T09:28:38.209Z,2.00
2024-03-29T09:29:27.655Z,2.00
2024-03-29T09:30:18.788Z,2.00
2024-03-29T09:31:09.069Z,2.00
2024-03-29T09:31:59.144Z,2.00
2024-03-29T09:32:50.107Z,2.00
2024-03-29T09:33:39.260Z,2.00
2024-03-29T09:34:28.854Z,2.00
2024-03-29T09:35:19.263Z,2.00
2024-03-29T09:36:11.028Z,2.00
2024-03-29T09:37:00.592Z,2.00
2024-03-29T09:37:50.350Z,2.00
2024-03-29T09:38:39.601Z,2.00
2024-03-29T09:39:28.923Z,2.00
2024-03-29T09:40:18.667Z,2.00
2024-03-29T09:41:14.561Z,2.00
2024-03-29T09:42:04.220Z,2.00
2024-03-29T09:43:03.524Z,2.00
2024-03-29T09:43:54.978Z,2.00
2024-03-29T09:44:46.051Z,2.00
2024-03-29T09:45:36.750Z,2.00
2024-03-29T09:46:27.744Z,2.00
2024-03-29T09:47:18.036Z,2.00
2024-03-29T09:48:08.973Z,2.00
2024-03-29T09:48:59.390Z,2.00
2024-03-29T09:49:50.448Z,2.00
2024-03-29T09:50:39.892Z,2.00
2024-03-29T09:51:29.839Z,2.00
2024-03-29T09:52:20.183Z,2.00
2024-03-29T09:53:09.654Z,2.00
2024-03-29T09:54:04.604Z,2.00
2024-03-29T09:54:56.551Z,2.00
2024-03-29T09:55:46.563Z,2.00
2024-03-29T09:56:36.228Z,2.00
2024-03-29T09:57:29.604Z,2.00
2024-03-29T09:58:19.312Z,2.00
2024-03-29T09:59:09.034Z,2.00
2024-03-29T09:59:58.422Z,2.00
2024-03-29T10:00:48.036Z,2.00
2024-03-29T10:01:37.757Z,2.00
2024-03-29T10:02:31.555Z,2.00
2024-03-29T10:03:23.472Z,2.00
2024-03-29T10:04:15.237Z,2.00
2024-03-29T10:05:07.415Z,2.00
2024-03-29T10:06:00.575Z,2.00
2024-03-29T10:06:50.786Z,2.00
2024-03-29T10:07:41.693Z,2.00
2024-03-29T10:08:31.359Z,2.00
2024-03-29T10:09:22.531Z,2.00
2024-03-29T10:10:12.079Z,2.00
2024-03-29T10:11:01.947Z,2.00
2024-03-29T10:11:51.617Z,2.00
2024-03-29T10:12:41.740Z,2.00
2024-03-29T10:13:30.823Z,2.00
2024-03-29T10:14:22.731Z,2.00
2024-03-29T10:15:16.487Z,1.00
2024-03-29T10:16:05.890Z,1.67
2024-03-29T10:16:55.455Z,1.67
2024-03-29T10:17:50.575Z,1.00
2024-03-29T10:18:44.318Z,1.00
2024-03-29T10:19:33.485Z,1.00
2024-03-29T10:20:23.509Z,1.00
2024-03-29T10:21:13.435Z,1.00
2024-03-29T10:22:06.821Z,1.00
2024-03-29T10:23:01.963Z,1.00
2024-03-29T10:23:52.401Z,1.00
2024-03-29T10:24:42.071Z,1.00
2024-03-29T10:25:34.611Z,1.00
2024-03-29T10:26:25.275Z,1.00
2024-03-29T10:27:14.731Z,1.00
2024-03-29T10:28:04.468Z,1.00
2024-03-29T10:28:54.679Z,1.00
2024-03-29T10:29:44.049Z,1.00
2024-03-29T10:30:33.650Z,1.00
2024-03-29T10:31:23.369Z,1.00
2024-03-29T10:32:13.167Z,1.00
2024-03-29T10:33:03.806Z,1.00
2024-03-29T10:33:54.836Z,1.00
2024-03-29T10:34:47.457Z,1.00
2024-03-29T10:35:36.957Z,1.00
2024-03-29T10:36:26.534Z,1.00
2024-03-29T10:37:25.424Z,1.00
2024-03-29T10:38:14.639Z,1.00
2024-03-29T10:39:12.705Z,1.00
2024-03-29T10:40:04.599Z,1.00
2024-03-29T10:40:54.360Z,1.00
2024-03-29T10:41:49.646Z,1.00
2024-03-29T10:42:41.731Z,1.00
2024-03-29T10:43:31.269Z,1.00
2024-03-29T10:44:21.110Z,1.00
2024-03-29T10:45:10.558Z,1.00
2024-03-29T10:46:00.921Z,1.00
2024-03-29T10:46:50.677Z,1.00
2024-03-29T10:47:44.159Z,1.00
2024-03-29T10:48:36.230Z,1.00
2024-03-29T10:49:28.218Z,1.00
2024-03-29T10:50:17.716Z,1.00
2024-03-29T10:51:07.734Z,1.00
2024-03-29T10:51:58.914Z,1.00
2024-03-29T10:52:48.927Z,1.00
2024-03-29T10:53:38.688Z,1.00
2024-03-29T10:54:28.469Z,1.00
2024-03-29T10:55:17.820Z,1.00
2024-03-29T10:56:08.312Z,1.00
2024-03-29T10:57:06.852Z,1.00
2024-03-29T10:57:58.287Z,1.00